AirNav   SIMCOM
 
 972 users online  

H96 Benton Municipal Airport
Benton, Illinois, USA

GOING TO BENTON?


FAA INFORMATION EFFECTIVE 09 NOVEMBER 2017

Location

FAA Identifier: H96
Lat/Long: 38-00-30.6000N / 088-56-04.0000W
38-00.510000N / 088-56.066667W
38.0085000 / -88.9344444
(estimated)
Elevation: 444.1 ft. / 135.4 m (surveyed)
Variation: 02W (2010)
From city: 1 mile W of BENTON, IL
Time zone: UTC -6 (UTC -5 during Daylight Saving Time)
Zip code: 62812

Airport Operations

Airport use: Open to the public
Activation date: 04/1947
Control tower: no
ARTCC: KANSAS CITY CENTER
FSS: SAINT LOUIS FLIGHT SERVICE STATION
NOTAMs facility: STL (NOTAM-D service available)
Attendance: UNATTND
Pattern altitude: 1244.1 ft. MSL
Wind indicator: lighted
Segmented circle: no
Lights: MIRL RY 18/36 PRESET ON LOW INTST; TO INCR INTST ACTVT - CTAF.
Beacon: white-green (lighted land airport)
Operates sunset to sunrise.

Airport Communications

CTAF/UNICOM: 122.8
WX AWOS-3 at MWA (16 nm S): 119.675 (618-942-8877)
WX AWOS-3PT at MVN (19 nm N): 113.8 (618-242-7933)
  • APCH/DEP SVC PRVDD BY KANSAS CITY ARTCC ON FREQS 127.47/346.27 (MARION RCAG).

Nearby radio navigation aids

VOR radial/distance  VOR name  Freq  Var
MWAr009/15.7MARION VOR/DME110.4004E
VNNr194/22.0MOUNT VERNON VOR/DME113.8002E
ENLr153/26.9CENTRALIA VORTAC115.0004E

 
NDB name  Hdg/Dist  Freq  Var  ID
JONNY009/10.338201EMW -- .--
WAYNE COUNTY229/33.325701WFWC ..-. .-- -.-.
SALEM179/38.240001WSLO ... .-.. ---

Airport Services

Fuel available: 100LL
Parking: tiedowns

Runway Information

Runway 18/36

Dimensions: 4002 x 75 ft. / 1220 x 23 m
Surface: asphalt, in good condition
Weight bearing capacity: 
Single wheel: 4.0
Runway edge lights: medium intensity
RUNWAY 18  RUNWAY 36
Latitude: 38-00.840073N38-00.180805N
Longitude: 088-56.071950W088-56.061308W
Elevation: 439.1 ft.444.1 ft.
Gradient: 0.2%0.2%
Traffic pattern: leftleft
Runway heading: 181 magnetic, 179 true001 magnetic, 359 true
Markings: nonprecision, in fair conditionnonprecision, in fair condition
Visual slope indicator: 4-light PAPI on left (3.33 degrees glide path)
Runway end identifier lights: yesyes
Touchdown point: yes, no lightsyes, no lights
Obstructions: none86 ft. tree, 1680 ft. from runway, 17:1 slope to clear

Airport Ownership and Management from official FAA records

Ownership: Publicly-owned
Owner: CITY OF BENTON
P.O. BOX 640-CITY HALL
BENTON, IL 62812
Phone 618-439-6131
Manager: MICHAEL J. WYATT
P.O. BOX 158
BENTON, IL 62812
Phone 618-435-3526
IF NO ANSWR, CALL 618-439-6409.

Airport Operational Statistics

Aircraft based on the field: 10
Single engine airplanes: 9
Multi engine airplanes: 1
    
Aircraft operations: avg 22/day *
49% local general aviation
45% transient general aviation
5% air taxi
<1% military
* for 12-month period ending 31 March 2016

Instrument Procedures

NOTE: All procedures below are presented as PDF files. If you need a reader for these files, you should download the free Adobe Reader.

NOT FOR NAVIGATION. Please procure official charts for flight.
FAA instrument procedures published for use between 9 November 2017 at 0901Z and 7 December 2017 at 0900Z.

 
IAPs - Instrument Approach Procedures
RNAV (GPS) RWY 18   download (205KB)
NOTE: Special Take-Off Minimums/Departure Procedures apply   download (201KB)

Other nearby airports with instrument procedures:

KMWA - Veterans Airport of Southern Illinois (16 nm S)
KMVN - Mount Vernon Airport (19 nm N)
KPJY - Pinckneyville-Du Quoin Airport (20 nm W)
KMDH - Southern Illinois Airport (20 nm SW)
KHSB - Harrisburg-Raleigh Airport (22 nm SE)
 
Loc | Ops | Rwys | IFR | FBO | Links
Com | Nav | Svcs | Stats | Notes


 
Area around H96 (Benton Municipal Airport)
 
Road maps at: MapQuest Bing Google
 
Aerial photo
WARNING: Photo may not be current or correct
Aerial photo of H96 (Benton Municipal Airport)
Photo by LD Pahnke
Photo taken 08-May-2011
looking southeast from 3500'.

Do you have a better or more recent aerial photo of Benton Municipal Airport that you would like to share? If so, please send us your photo.

 
Sectional chart

 
Airport distance calculator
Flying to Benton Municipal Airport? Find the distance to fly.

From to H96

Sunrise and sunset
Times for 18-Nov-2017
 Local
(UTC-6)
 Zulu
(UTC)
Morning civil twilight06:1212:12
Sunrise06:4112:41
Sunset16:4122:41
Evening civil twilight17:0923:09

Current date and time
Zulu (UTC)  18-Nov-2017 23:15:11
Local (UTC-6)  18-Nov-2017 17:15:11
 
METAR
KMWA 
16nm S 
182245Z 33016G25KT 10SM -RA OVC015 05/05 A2975
KMVN 
19nm N 
182256Z AUTO VRB04KT 10SM -RA OVC012 03/02 A2974 RMK AO2 SLP071 P0002 T00330017
KMDH 
20nm SW 
182252Z 31019G27KT 10SM -RA SCT015 BKN022 OVC038 04/03 A2977 RMK AO2 PK WND 32032/2214 SLP079 P0002 T00440033
KHSB 
22nm SE 
182255Z AUTO 31022G30KT 7SM DZ OVC013 05/04 A2972 RMK AO2 T00460035
KENL 
31nm N 
182255Z AUTO 31012G18KT 10SM -RA BKN010 BKN015 OVC020 04/03 A2973 RMK AO2 P0002 T00360031
TAF
NOTAMs
Click for the latest NOTAMs
NOTAMs are issued by the DoD/FAA and will open in a separate window not controlled by AirNav.

 

 
 

FBO, Fuel Providers, and Aircraft Ground Support

  
 Business Name 
 
 Contact 
 
 Services / Description 
 
Fuel Prices
 
Comments
  
Benton Municipal Airport 618-435-3526
no information available

If you are affiliated with Benton Municipal Airport and would like to show here your services, contact info, web link, logo, and more, click here
100LL
PS $4.40 
 Updated 29-May-2016
 
   write
PS=Pump service
Update Fuel Prices
 

Would you like to see your business listed on this page?

 If your business provides an interesting product or service to pilots, flight crews, aircraft, or users of the Benton Municipal Airport, you should consider listing it here.  To start the listing process, click on the button below
 
Add a business
 

Other Pages about Benton Municipal Airport

Update a link
 
Copyright © AirNav, LLC. All rights reserved. Privacy Policy  Contact